Time,TemperatureF,DewpointF,PressureIn,WindDirection,WindDirectionDegrees,WindSpeedMPH,WindSpeedGustMPH,Humidity,HourlyPrecipIn,Conditions,Clouds,dailyrainin,SoftwareType,DateUTC
2013-06-07 00:13:00,75.3,73.0,29.92,NNE,27,6.0,9.0,92,0.00,,,0.65,weatherlink.com 1.10,2013-06-07 04:13:00,
2013-06-07 00:28:00,75.4,73.0,29.92,NNE,27,10.0,13.0,92,0.00,,,0.00,weatherlink.com 1.10,2013-06-07 04:28:00,
2013-06-07 00:43:00,75.4,73.0,29.91,North,8,9.0,13.0,92,0.00,,,0.00,weatherlink.com 1.10,2013-06-07 04:43:00,
2013-06-07 00:58:00,75.3,73.0,29.91,NNE,18,8.0,15.0,92,0.00,,,0.00,weatherlink.com 1.10,2013-06-07 04:58:00,
2013-06-07 01:13:00,75.4,73.0,29.90,NNW,329,8.0,12.0,92,0.00,,,0.00,weatherlink.com 1.10,2013-06-07 05:13:00,
2013-06-07 01:28:00,75.3,73.0,29.91,North,353,11.0,15.0,92,0.00,,,0.00,weatherlink.com 1.10,2013-06-07 05:28:00,
2013-06-07 01:43:00,75.4,73.0,29.90,North,1,11.0,15.0,92,0.00,,,0.00,weatherlink.com 1.10,2013-06-07 05:43:00,
2013-06-07 01:58:00,75.3,73.0,29.89,NNW,343,8.0,13.0,91,0.00,,,0.00,weatherlink.com 1.10,2013-06-07 05:58:00,
2013-06-07 02:13:00,75.2,73.0,29.89,North,6,6.0,10.0,92,0.00,,,0.00,weatherlink.com 1.10,2013-06-07 06:13:00,
2013-06-07 02:28:00,75.2,73.0,29.88,NW,320,7.0,10.0,92,0.00,,,0.00,weatherlink.com 1.10,2013-06-07 06:28:00,
2013-06-07 02:43:00,75.2,73.0,29.87,NW,316,9.0,11.0,93,0.00,,,0.00,weatherlink.com 1.10,2013-06-07 06:43:00,
2013-06-07 02:58:00,75.4,73.0,29.86,NW,324,10.0,14.0,91,0.00,,,0.00,weatherlink.com 1.10,2013-06-07 06:58:00,
2013-06-07 03:13:00,75.2,72.0,29.86,NNW,337,12.0,21.0,90,0.01,,,0.01,weatherlink.com 1.10,2013-06-07 07:13:00,
2013-06-07 03:28:00,74.9,73.0,29.86,NNW,329,12.0,22.0,92,0.01,,,0.01,weatherlink.com 1.10,2013-06-07 07:28:00,
2013-06-07 03:43:00,74.7,73.0,29.85,NW,324,17.0,18.0,93,0.01,,,0.01,weatherlink.com 1.10,2013-06-07 07:43:00,
2013-06-07 03:58:00,74.7,73.0,29.84,NNW,334,10.0,18.0,94,0.01,,,0.01,weatherlink.com 1.10,2013-06-07 07:58:00,
2013-06-07 04:13:00,74.3,72.0,29.84,NNW,327,13.0,18.0,93,0.00,,,0.01,weatherlink.com 1.10,2013-06-07 08:13:00,
2013-06-07 04:28:00,74.3,73.0,29.84,WNW,298,11.0,16.0,94,0.01,,,0.02,weatherlink.com 1.10,2013-06-07 08:28:00,
2013-06-07 04:43:00,74.4,73.0,29.83,NNW,329,13.0,15.0,94,0.01,,,0.02,weatherlink.com 1.10,2013-06-07 08:43:00,
2013-06-07 04:59:00,74.1,72.0,29.83,NNW,345,18.0,29.0,92,0.04,,,0.05,weatherlink.com 1.10,2013-06-07 08:59:00,
2013-06-07 05:14:00,74.1,73.0,29.82,NNW,342,15.0,22.0,95,0.11,,,0.12,weatherlink.com 1.10,2013-06-07 09:14:00,
2013-06-07 05:29:00,74.4,72.0,29.82,NW,318,21.0,26.0,93,0.12,,,0.14,weatherlink.com 1.10,2013-06-07 09:29:00,
2013-06-07 05:44:00,74.6,73.0,29.81,NW,308,21.0,25.0,95,0.16,,,0.18,weatherlink.com 1.10,2013-06-07 09:44:00,
2013-06-07 05:59:00,74.6,73.0,29.81,NNW,346,19.0,25.0,95,0.20,,,0.25,weatherlink.com 1.10,2013-06-07 09:59:00,
2013-06-07 06:14:00,75.1,74.0,29.79,North,1,21.0,27.0,96,0.19,,,0.31,weatherlink.com 1.10,2013-06-07 10:14:00,
2013-06-07 06:29:00,75.3,74.0,29.78,NW,325,21.0,30.0,94,0.19,,,0.33,weatherlink.com 1.10,2013-06-07 10:29:00,
2013-06-07 06:44:00,76.0,74.0,29.78,NNW,340,19.0,35.0,94,0.16,,,0.34,weatherlink.com 1.10,2013-06-07 10:44:00,
2013-06-07 06:59:00,75.9,74.0,29.77,NNE,14,24.0,37.0,94,0.10,,,0.35,weatherlink.com 1.10,2013-06-07 10:59:00,
2013-06-07 07:14:00,76.1,75.0,29.77,North,1,26.0,35.0,95,0.06,,,0.37,weatherlink.com 1.10,2013-06-07 11:14:00,
2013-06-07 07:29:00,77.0,75.0,29.77,NNW,345,32.0,37.0,93,0.04,,,0.37,weatherlink.com 1.10,2013-06-07 11:29:00,
2013-06-07 07:44:00,76.9,74.0,29.77,North,354,28.0,43.0,90,0.03,,,0.37,weatherlink.com 1.10,2013-06-07 11:44:00,
2013-06-07 07:59:00,76.4,75.0,29.77,NNW,330,34.0,37.0,94,0.05,,,0.41,weatherlink.com 1.10,2013-06-07 11:59:00,
2013-06-07 08:14:00,76.3,75.0,29.77,North,352,28.0,37.0,94,0.05,,,0.42,weatherlink.com 1.10,2013-06-07 12:14:00,
2013-06-07 08:29:00,76.0,75.0,29.77,NE,35,23.0,38.0,95,0.07,,,0.44,weatherlink.com 1.10,2013-06-07 12:29:00,
2013-06-07 08:44:00,76.5,75.0,29.77,North,2,22.0,32.0,94,0.08,,,0.45,weatherlink.com 1.10,2013-06-07 12:44:00,
2013-06-07 08:59:00,76.1,74.0,29.77,NNW,338,17.0,39.0,92,0.04,,,0.45,weatherlink.com 1.10,2013-06-07 12:59:00,
2013-06-07 09:14:00,77.9,75.0,29.77,North,9,21.0,36.0,91,0.03,,,0.45,weatherlink.com 1.10,2013-06-07 13:14:00,
2013-06-07 09:29:00,78.1,75.0,29.77,NNW,332,24.0,33.0,90,0.00,,,0.45,weatherlink.com 1.10,2013-06-07 13:29:00,
2013-06-07 09:44:00,78.7,75.0,29.77,North,8,29.0,39.0,87,0.00,,,0.45,weatherlink.com 1.10,2013-06-07 13:44:00,
2013-06-07 09:59:00,78.8,75.0,29.77,NNE,18,29.0,35.0,87,0.00,,,0.45,weatherlink.com 1.10,2013-06-07 13:59:00,
2013-06-07 10:14:00,79.2,75.0,29.77,NE,34,24.0,31.0,86,0.00,,,0.45,weatherlink.com 1.10,2013-06-07 14:14:00,
2013-06-07 10:29:00,79.3,75.0,29.76,North,11,22.0,34.0,87,0.00,,,0.45,weatherlink.com 1.10,2013-06-07 14:29:00,
2013-06-07 10:44:00,79.6,76.0,29.75,NNW,333,27.0,31.0,87,0.00,,,0.45,weatherlink.com 1.10,2013-06-07 14:44:00,
2013-06-07 10:59:00,79.7,75.0,29.75,North,351,24.0,33.0,86,0.00,,,0.45,weatherlink.com 1.10,2013-06-07 14:59:00,
2013-06-07 11:14:00,79.5,75.0,29.74,North,349,20.0,37.0,86,0.00,,,0.45,weatherlink.com 1.10,2013-06-07 15:14:00,
2013-06-07 11:29:00,79.9,75.0,29.73,NNE,32,24.0,40.0,86,0.00,,,0.45,weatherlink.com 1.10,2013-06-07 15:29:00,
2013-06-07 11:44:00,80.6,75.0,29.75,NNE,22,33.0,42.0,84,0.00,,,0.45,weatherlink.com 1.10,2013-06-07 15:44:00,
2013-06-07 11:59:00,80.4,75.0,29.75,North,6,25.0,37.0,83,0.00,,,0.45,weatherlink.com 1.10,2013-06-07 15:59:00,
2013-06-07 12:15:00,80.4,75.0,29.74,NW,323,16.0,34.0,83,0.00,,,0.45,weatherlink.com 1.10,2013-06-07 16:15:00,
2013-06-07 12:30:00,80.2,75.0,29.74,NNW,333,19.0,35.0,83,0.00,,,0.45,weatherlink.com 1.10,2013-06-07 16:30:00,
2013-06-07 12:45:00,80.1,75.0,29.73,NNE,30,29.0,36.0,83,0.00,,,0.45,weatherlink.com 1.10,2013-06-07 16:45:00,
2013-06-07 13:00:00,80.2,74.0,29.73,NNE,18,25.0,44.0,82,0.00,,,0.45,weatherlink.com 1.10,2013-06-07 17:00:00,
2013-06-07 13:15:00,79.9,74.0,29.71,NNE,22,24.0,37.0,82,0.00,,,0.45,weatherlink.com 1.10,2013-06-07 17:15:00,
2013-06-07 13:30:00,79.7,74.0,29.71,NNW,347,19.0,37.0,83,0.00,,,0.45,weatherlink.com 1.10,2013-06-07 17:30:00,
2013-06-07 13:45:00,79.8,75.0,29.70,NNW,338,29.0,39.0,84,0.00,,,0.45,weatherlink.com 1.10,2013-06-07 17:45:00,
2013-06-07 14:00:00,79.0,75.0,29.69,NNE,25,23.0,41.0,86,0.00,,,0.45,weatherlink.com 1.10,2013-06-07 18:00:00,
2013-06-07 14:15:00,79.3,75.0,29.68,NNW,328,26.0,44.0,85,0.00,,,0.45,weatherlink.com 1.10,2013-06-07 18:15:00,
2013-06-07 14:30:00,79.6,75.0,29.67,NNE,26,21.0,38.0,85,0.00,,,0.45,weatherlink.com 1.10,2013-06-07 18:30:00,
2013-06-07 15:00:00,79.2,74.0,29.66,NNE,17,18.0,46.0,85,0.00,,,0.45,weatherlink.com 1.10,2013-06-07 19:00:00,
2013-06-07 15:15:00,77.0,74.0,29.66,North,8,31.0,42.0,90,0.01,,,0.46,weatherlink.com 1.10,2013-06-07 19:15:00,
2013-06-07 15:30:00,76.4,73.0,29.66,NNE,32,42.0,53.0,88,0.01,,,0.46,weatherlink.com 1.10,2013-06-07 19:30:00,
2013-06-07 15:45:00,77.3,74.0,29.66,NE,46,27.0,41.0,88,0.01,,,0.46,weatherlink.com 1.10,2013-06-07 19:45:00,
2013-06-07 16:15:00,78.5,73.0,29.65,NE,44,33.0,48.0,83,0.00,,,0.46,weatherlink.com 1.10,2013-06-07 20:15:00,
2013-06-07 16:30:00,77.7,73.0,29.64,NE,46,37.0,50.0,85,0.00,,,0.46,weatherlink.com 1.10,2013-06-07 20:30:00,
2013-06-07 16:45:00,76.9,73.0,29.65,East,89,32.0,48.0,87,0.00,,,0.46,weatherlink.com 1.10,2013-06-07 20:45:00,
2013-06-07 17:00:00,77.7,73.0,29.65,NNE,24,21.0,46.0,85,0.00,,,0.46,weatherlink.com 1.10,2013-06-07 21:00:00,
2013-06-07 17:15:00,77.5,73.0,29.64,NE,37,36.0,49.0,85,0.00,,,0.46,weatherlink.com 1.10,2013-06-07 21:15:00,
2013-06-07 17:30:00,77.6,73.0,29.64,NE,38,20.0,43.0,86,0.00,,,0.46,weatherlink.com 1.10,2013-06-07 21:30:00,
2013-06-07 17:45:00,77.3,73.0,29.64,NE,35,27.0,44.0,86,0.00,,,0.46,weatherlink.com 1.10,2013-06-07 21:45:00,
2013-06-07 18:15:00,77.1,73.0,29.63,NE,47,24.0,45.0,86,0.00,,,0.46,weatherlink.com 1.10,2013-06-07 22:15:00,
2013-06-07 18:45:00,76.6,73.0,29.65,NE,49,31.0,44.0,87,0.00,,,0.46,weatherlink.com 1.10,2013-06-07 22:45:00,
2013-06-07 19:15:00,76.7,73.0,29.67,NE,55,29.0,43.0,87,0.00,,,0.46,weatherlink.com 1.10,2013-06-07 23:15:00,
2013-06-07 19:30:00,76.6,73.0,29.68,ENE,68,35.0,43.0,87,0.00,,,0.46,weatherlink.com 1.10,2013-06-07 23:30:00,
2013-06-07 20:00:00,76.0,72.0,29.70,ENE,70,32.0,42.0,88,0.00,,,0.46,weatherlink.com 1.10,2013-06-08 00:00:00,
2013-06-07 20:15:00,76.1,73.0,29.71,NE,55,29.0,42.0,89,0.00,,,0.46,weatherlink.com 1.10,2013-06-08 00:15:00,
2013-06-07 20:30:00,76.1,72.0,29.72,ENE,65,37.0,39.0,88,0.00,,,0.46,weatherlink.com 1.10,2013-06-08 00:30:00,
2013-06-07 20:45:00,75.9,73.0,29.73,NE,38,30.0,39.0,89,0.00,,,0.46,weatherlink.com 1.10,2013-06-08 00:45:00,
2013-06-07 21:00:00,76.0,73.0,29.75,NE,56,26.0,37.0,89,0.00,,,0.46,weatherlink.com 1.10,2013-06-08 01:00:00,
2013-06-07 21:15:00,76.2,73.0,29.76,NE,43,20.0,35.0,88,0.00,,,0.46,weatherlink.com 1.10,2013-06-08 01:15:00,
2013-06-07 21:30:00,76.1,73.0,29.77,NE,41,19.0,32.0,89,0.00,,,0.46,weatherlink.com 1.10,2013-06-08 01:30:00,
2013-06-07 21:45:00,76.0,73.0,29.79,NE,55,17.0,31.0,89,0.00,,,0.46,weatherlink.com 1.10,2013-06-08 01:45:00,
2013-06-07 22:00:00,76.0,73.0,29.80,NE,48,12.0,24.0,90,0.00,,,0.46,weatherlink.com 1.10,2013-06-08 02:00:00,
2013-06-07 22:15:00,75.9,73.0,29.81,East,89,8.0,18.0,90,0.00,,,0.46,weatherlink.com 1.10,2013-06-08 02:15:00,
2013-06-07 22:45:00,76.4,72.0,29.84,ENE,64,9.0,25.0,86,0.00,,,0.46,weatherlink.com 1.10,2013-06-08 02:45:00,
2013-06-07 23:00:00,76.4,72.0,29.85,East,90,17.0,25.0,86,0.00,,,0.46,weatherlink.com 1.10,2013-06-08 03:00:00,
2013-06-07 23:15:00,76.4,72.0,29.86,East,87,13.0,26.0,86,0.00,,,0.46,weatherlink.com 1.10,2013-06-08 03:15:00,
2013-06-07 23:30:00,76.2,73.0,29.86,East,91,9.0,19.0,90,0.00,,,0.46,weatherlink.com 1.10,2013-06-08 03:30:00,
2013-06-07 23:45:00,75.6,73.0,29.87,ENE,67,7.0,23.0,92,0.00,,,0.46,weatherlink.com 1.10,2013-06-08 03:45:00,